sensor_id;sensor_type;location;lat;lon;timestamp;temperature;humidity
435;DHT22;204;48.942;9.256;2023-07-31T00:00:34;16.70;99.90
435;DHT22;204;48.942;9.256;2023-07-31T00:02:59;16.70;99.90
435;DHT22;204;48.942;9.256;2023-07-31T00:05:25;16.70;99.90
435;DHT22;204;48.942;9.256;2023-07-31T00:07:51;16.70;99.90
435;DHT22;204;48.942;9.256;2023-07-31T00:10:16;16.60;99.90
435;DHT22;204;48.942;9.256;2023-07-31T00:12:44;16.60;99.90
435;DHT22;204;48.942;9.256;2023-07-31T00:15:10;16.60;99.90
435;DHT22;204;48.942;9.256;2023-07-31T00:17:36;16.50;99.90
435;DHT22;204;48.942;9.256;2023-07-31T00:20:02;16.50;99.90
435;DHT22;204;48.942;9.256;2023-07-31T00:22:28;16.50;99.90
435;DHT22;204;48.942;9.256;2023-07-31T00:24:54;16.50;99.90
435;DHT22;204;48.942;9.256;2023-07-31T00:27:19;16.50;99.90
435;DHT22;204;48.942;9.256;2023-07-31T00:29:45;16.50;99.90
435;DHT22;204;48.942;9.256;2023-07-31T00:32:10;16.50;99.90
435;DHT22;204;48.942;9.256;2023-07-31T00:34:36;16.40;99.90
435;DHT22;204;48.942;9.256;2023-07-31T00:37:02;16.40;99.90
435;DHT22;204;48.942;9.256;2023-07-31T00:39:30;16.40;99.90
435;DHT22;204;48.942;9.256;2023-07-31T00:41:55;16.40;99.90
435;DHT22;204;48.942;9.256;2023-07-31T00:44:21;16.40;99.90
435;DHT22;204;48.942;9.256;2023-07-31T00:46:46;16.40;99.90
435;DHT22;204;48.942;9.256;2023-07-31T00:49:12;16.40;99.90
435;DHT22;204;48.942;9.256;2023-07-31T00:51:38;16.30;99.90
435;DHT22;204;48.942;9.256;2023-07-31T00:54:03;16.30;99.90
435;DHT22;204;48.942;9.256;2023-07-31T00:56:29;16.30;99.90
435;DHT22;204;48.942;9.256;2023-07-31T00:58:55;16.30;99.90
435;DHT22;204;48.942;9.256;2023-07-31T01:01:21;16.30;99.90
435;DHT22;204;48.942;9.256;2023-07-31T01:03:48;16.30;99.90
435;DHT22;204;48.942;9.256;2023-07-31T01:06:31;16.30;99.90
435;DHT22;204;48.942;9.256;2023-07-31T01:09:04;16.20;99.90
435;DHT22;204;48.942;9.256;2023-07-31T01:11:35;16.20;99.90
435;DHT22;204;48.942;9.256;2023-07-31T01:14:03;16.20;1.00
435;DHT22;204;48.942;9.256;2023-07-31T01:16:29;16.10;1.00
435;DHT22;204;48.942;9.256;2023-07-31T01:18:55;16.10;1.00
435;DHT22;204;48.942;9.256;2023-07-31T01:21:33;16.10;1.00
435;DHT22;204;48.942;9.256;2023-07-31T01:24:28;16.00;1.00
435;DHT22;204;48.942;9.256;2023-07-31T01:27:04;16.00;1.00
435;DHT22;204;48.942;9.256;2023-07-31T01:29:49;16.00;1.00
435;DHT22;204;48.942;9.256;2023-07-31T01:32:18;16.00;1.00
435;DHT22;204;48.942;9.256;2023-07-31T01:34:45;16.10;1.00
435;DHT22;204;48.942;9.256;2023-07-31T01:37:11;16.10;1.00
435;DHT22;204;48.942;9.256;2023-07-31T01:39:36;16.10;1.00
435;DHT22;204;48.942;9.256;2023-07-31T01:42:02;16.10;1.00
435;DHT22;204;48.942;9.256;2023-07-31T01:44:28;16.10;1.00
435;DHT22;204;48.942;9.256;2023-07-31T01:46:53;16.10;1.00
435;DHT22;204;48.942;9.256;2023-07-31T01:49:19;16.20;1.00
435;DHT22;204;48.942;9.256;2023-07-31T01:51:44;16.20;1.00
435;DHT22;204;48.942;9.256;2023-07-31T01:54:10;16.20;1.00
435;DHT22;204;48.942;9.256;2023-07-31T01:56:36;16.30;1.00
435;DHT22;204;48.942;9.256;2023-07-31T01:59:02;16.30;1.00
435;DHT22;204;48.942;9.256;2023-07-31T02:01:27;16.40;1.00
435;DHT22;204;48.942;9.256;2023-07-31T02:03:53;16.40;1.00
435;DHT22;204;48.942;9.256;2023-07-31T02:06:19;16.40;1.00
435;DHT22;204;48.942;9.256;2023-07-31T02:08:45;16.40;99.90
435;DHT22;204;48.942;9.256;2023-07-31T02:11:10;16.40;99.90
435;DHT22;204;48.942;9.256;2023-07-31T02:13:36;16.40;99.90
435;DHT22;204;48.942;9.256;2023-07-31T02:16:01;16.40;99.90
435;DHT22;204;48.942;9.256;2023-07-31T02:18:27;16.30;99.90
435;DHT22;204;48.942;9.256;2023-07-31T02:20:53;16.30;99.90
435;DHT22;204;48.942;9.256;2023-07-31T02:23:19;16.30;99.90
435;DHT22;204;48.942;9.256;2023-07-31T02:25:45;16.30;99.90
435;DHT22;204;48.942;9.256;2023-07-31T02:28:11;16.30;99.90
435;DHT22;204;48.942;9.256;2023-07-31T02:30:37;16.20;1.00
435;DHT22;204;48.942;9.256;2023-07-31T02:33:03;16.20;1.00
435;DHT22;204;48.942;9.256;2023-07-31T02:35:29;16.20;1.00
435;DHT22;204;48.942;9.256;2023-07-31T02:37:54;16.20;1.00
435;DHT22;204;48.942;9.256;2023-07-31T02:40:20;16.20;1.00
435;DHT22;204;48.942;9.256;2023-07-31T02:42:45;16.30;1.00
435;DHT22;204;48.942;9.256;2023-07-31T02:45:11;16.30;1.00
435;DHT22;204;48.942;9.256;2023-07-31T02:47:37;16.40;99.90
435;DHT22;204;48.942;9.256;2023-07-31T02:50:03;16.40;99.90
435;DHT22;204;48.942;9.256;2023-07-31T02:52:29;16.40;99.90
435;DHT22;204;48.942;9.256;2023-07-31T02:54:55;16.40;99.90
435;DHT22;204;48.942;9.256;2023-07-31T02:57:20;16.40;99.90
435;DHT22;204;48.942;9.256;2023-07-31T02:59:46;16.50;99.90
435;DHT22;204;48.942;9.256;2023-07-31T03:02:11;16.40;99.90
435;DHT22;204;48.942;9.256;2023-07-31T03:04:38;16.40;99.90
435;DHT22;204;48.942;9.256;2023-07-31T03:07:04;16.40;99.90
435;DHT22;204;48.942;9.256;2023-07-31T03:09:30;16.40;99.90
435;DHT22;204;48.942;9.256;2023-07-31T03:11:55;16.30;99.90
435;DHT22;204;48.942;9.256;2023-07-31T03:14:21;16.30;99.90
435;DHT22;204;48.942;9.256;2023-07-31T03:16:46;16.30;99.90
435;DHT22;204;48.942;9.256;2023-07-31T03:19:12;16.20;1.00
435;DHT22;204;48.942;9.256;2023-07-31T03:21:37;16.20;1.00
435;DHT22;204;48.942;9.256;2023-07-31T03:24:03;16.20;1.00
435;DHT22;204;48.942;9.256;2023-07-31T03:26:31;16.20;1.00
435;DHT22;204;48.942;9.256;2023-07-31T03:28:57;16.20;1.00
435;DHT22;204;48.942;9.256;2023-07-31T03:31:22;16.20;1.00
435;DHT22;204;48.942;9.256;2023-07-31T03:33:48;16.20;1.00
435;DHT22;204;48.942;9.256;2023-07-31T03:36:13;16.20;1.00
435;DHT22;204;48.942;9.256;2023-07-31T03:38:39;16.20;1.00
435;DHT22;204;48.942;9.256;2023-07-31T03:41:04;16.10;1.00
435;DHT22;204;48.942;9.256;2023-07-31T03:43:31;16.10;1.00
435;DHT22;204;48.942;9.256;2023-07-31T03:45:59;16.10;1.00
435;DHT22;204;48.942;9.256;2023-07-31T03:48:25;16.00;1.00
435;DHT22;204;48.942;9.256;2023-07-31T03:50:51;16.00;1.00
435;DHT22;204;48.942;9.256;2023-07-31T03:53:17;16.00;1.00
435;DHT22;204;48.942;9.256;2023-07-31T03:55:42;15.90;1.00
435;DHT22;204;48.942;9.256;2023-07-31T03:58:08;16.00;1.00
435;DHT22;204;48.942;9.256;2023-07-31T04:00:33;15.90;1.00
435;DHT22;204;48.942;9.256;2023-07-31T04:02:59;15.90;1.00
435;DHT22;204;48.942;9.256;2023-07-31T04:05:24;15.90;1.00
435;DHT22;204;48.942;9.256;2023-07-31T04:07:50;16.00;1.00
435;DHT22;204;48.942;9.256;2023-07-31T04:10:17;16.00;1.00
435;DHT22;204;48.942;9.256;2023-07-31T04:12:42;16.00;1.00
435;DHT22;204;48.942;9.256;2023-07-31T04:15:08;16.00;1.00
435;DHT22;204;48.942;9.256;2023-07-31T04:17:34;16.00;1.00
435;DHT22;204;48.942;9.256;2023-07-31T04:19:59;16.00;1.00
435;DHT22;204;48.942;9.256;2023-07-31T04:22:25;16.10;1.00
435;DHT22;204;48.942;9.256;2023-07-31T04:24:50;16.10;1.00
435;DHT22;204;48.942;9.256;2023-07-31T04:27:16;16.20;1.00
435;DHT22;204;48.942;9.256;2023-07-31T04:29:41;16.20;1.00
435;DHT22;204;48.942;9.256;2023-07-31T04:32:08;16.30;1.00
435;DHT22;204;48.942;9.256;2023-07-31T04:34:33;16.30;1.00
435;DHT22;204;48.942;9.256;2023-07-31T04:36:59;16.40;1.00
435;DHT22;204;48.942;9.256;2023-07-31T04:39:24;16.40;1.00
435;DHT22;204;48.942;9.256;2023-07-31T04:41:50;16.60;1.00
435;DHT22;204;48.942;9.256;2023-07-31T04:44:16;16.70;1.00
435;DHT22;204;48.942;9.256;2023-07-31T04:46:41;16.80;1.00
435;DHT22;204;48.942;9.256;2023-07-31T04:49:07;16.90;99.90
435;DHT22;204;48.942;9.256;2023-07-31T04:51:32;17.00;99.90
435;DHT22;204;48.942;9.256;2023-07-31T04:53:58;17.20;99.90
435;DHT22;204;48.942;9.256;2023-07-31T04:56:24;17.30;99.90
435;DHT22;204;48.942;9.256;2023-07-31T04:58:49;17.50;99.90
435;DHT22;204;48.942;9.256;2023-07-31T05:01:15;17.60;99.90
435;DHT22;204;48.942;9.256;2023-07-31T05:03:40;17.70;99.90
435;DHT22;204;48.942;9.256;2023-07-31T05:06:06;17.90;99.90
435;DHT22;204;48.942;9.256;2023-07-31T05:08:31;18.00;99.90
435;DHT22;204;48.942;9.256;2023-07-31T05:10:57;18.10;99.90
435;DHT22;204;48.942;9.256;2023-07-31T05:13:23;18.30;99.90
435;DHT22;204;48.942;9.256;2023-07-31T05:15:48;18.40;99.90
435;DHT22;204;48.942;9.256;2023-07-31T05:18:15;18.50;99.90
435;DHT22;204;48.942;9.256;2023-07-31T05:20:40;18.50;99.90
435;DHT22;204;48.942;9.256;2023-07-31T05:23:06;18.60;99.90
435;DHT22;204;48.942;9.256;2023-07-31T05:25:32;18.70;99.90
435;DHT22;204;48.942;9.256;2023-07-31T05:27:58;18.80;99.90
435;DHT22;204;48.942;9.256;2023-07-31T05:30:23;18.90;99.90
435;DHT22;204;48.942;9.256;2023-07-31T05:32:49;19.10;99.90
435;DHT22;204;48.942;9.256;2023-07-31T05:35:14;19.20;99.90
435;DHT22;204;48.942;9.256;2023-07-31T05:37:40;19.50;99.90
435;DHT22;204;48.942;9.256;2023-07-31T05:40:06;19.90;99.90
435;DHT22;204;48.942;9.256;2023-07-31T05:42:32;20.10;99.90
435;DHT22;204;48.942;9.256;2023-07-31T05:44:57;20.50;99.90
435;DHT22;204;48.942;9.256;2023-07-31T05:47:23;20.80;99.90
435;DHT22;204;48.942;9.256;2023-07-31T05:49:49;21.00;99.90
435;DHT22;204;48.942;9.256;2023-07-31T05:52:17;21.30;99.90
435;DHT22;204;48.942;9.256;2023-07-31T05:54:42;21.50;99.90
435;DHT22;204;48.942;9.256;2023-07-31T05:57:08;21.60;99.90
435;DHT22;204;48.942;9.256;2023-07-31T05:59:33;21.70;99.90
435;DHT22;204;48.942;9.256;2023-07-31T06:01:59;21.90;99.90
435;DHT22;204;48.942;9.256;2023-07-31T06:04:25;21.90;99.90
435;DHT22;204;48.942;9.256;2023-07-31T06:06:51;22.00;99.90
435;DHT22;204;48.942;9.256;2023-07-31T06:09:17;22.10;99.90
435;DHT22;204;48.942;9.256;2023-07-31T06:11:42;22.30;99.90
435;DHT22;204;48.942;9.256;2023-07-31T06:14:08;22.60;99.90
435;DHT22;204;48.942;9.256;2023-07-31T06:16:34;22.90;99.90
435;DHT22;204;48.942;9.256;2023-07-31T06:19:00;23.30;99.90
435;DHT22;204;48.942;9.256;2023-07-31T06:21:25;23.40;99.90
435;DHT22;204;48.942;9.256;2023-07-31T06:23:51;23.60;99.90
435;DHT22;204;48.942;9.256;2023-07-31T06:26:17;23.80;99.90
435;DHT22;204;48.942;9.256;2023-07-31T06:28:42;23.90;99.90
435;DHT22;204;48.942;9.256;2023-07-31T06:31:08;24.00;99.90
435;DHT22;204;48.942;9.256;2023-07-31T06:33:33;24.00;99.90
435;DHT22;204;48.942;9.256;2023-07-31T06:35:59;24.10;99.90
435;DHT22;204;48.942;9.256;2023-07-31T06:38:26;24.10;99.90
435;DHT22;204;48.942;9.256;2023-07-31T06:40:52;24.20;99.90
435;DHT22;204;48.942;9.256;2023-07-31T06:43:17;24.40;99.90
435;DHT22;204;48.942;9.256;2023-07-31T06:45:43;24.60;99.90
435;DHT22;204;48.942;9.256;2023-07-31T06:48:09;24.90;99.90
435;DHT22;204;48.942;9.256;2023-07-31T06:50:35;25.10;99.90
435;DHT22;204;48.942;9.256;2023-07-31T06:53:00;25.10;99.90
435;DHT22;204;48.942;9.256;2023-07-31T06:55:26;25.10;99.90
435;DHT22;204;48.942;9.256;2023-07-31T06:57:53;25.10;99.90
435;DHT22;204;48.942;9.256;2023-07-31T07:00:21;25.30;99.90
435;DHT22;204;48.942;9.256;2023-07-31T07:02:47;25.60;99.90
435;DHT22;204;48.942;9.256;2023-07-31T07:05:13;26.00;99.90
435;DHT22;204;48.942;9.256;2023-07-31T07:07:40;26.50;99.90
435;DHT22;204;48.942;9.256;2023-07-31T07:10:06;26.90;99.90
435;DHT22;204;48.942;9.256;2023-07-31T07:12:32;27.10;99.90
435;DHT22;204;48.942;9.256;2023-07-31T07:14:58;27.20;99.90
435;DHT22;204;48.942;9.256;2023-07-31T07:17:25;27.30;99.90
435;DHT22;204;48.942;9.256;2023-07-31T07:19:50;27.30;99.90
435;DHT22;204;48.942;9.256;2023-07-31T07:22:16;27.30;99.90
435;DHT22;204;48.942;9.256;2023-07-31T07:24:42;27.50;99.90
435;DHT22;204;48.942;9.256;2023-07-31T07:27:07;27.70;99.90
435;DHT22;204;48.942;9.256;2023-07-31T07:29:34;27.90;99.90
435;DHT22;204;48.942;9.256;2023-07-31T07:32:00;28.00;99.90
435;DHT22;204;48.942;9.256;2023-07-31T07:34:27;27.90;99.90
435;DHT22;204;48.942;9.256;2023-07-31T07:36:52;27.70;99.90
435;DHT22;204;48.942;9.256;2023-07-31T07:39:18;27.40;99.90
435;DHT22;204;48.942;9.256;2023-07-31T07:41:43;27.10;99.90
435;DHT22;204;48.942;9.256;2023-07-31T07:44:09;27.00;99.90
435;DHT22;204;48.942;9.256;2023-07-31T07:46:34;26.90;99.90
435;DHT22;204;48.942;9.256;2023-07-31T07:49:00;26.80;99.90
435;DHT22;204;48.942;9.256;2023-07-31T07:51:26;26.80;99.90
435;DHT22;204;48.942;9.256;2023-07-31T07:53:51;26.80;99.90
435;DHT22;204;48.942;9.256;2023-07-31T07:56:17;27.00;99.90
435;DHT22;204;48.942;9.256;2023-07-31T07:58:43;27.20;99.90
435;DHT22;204;48.942;9.256;2023-07-31T08:01:08;27.20;99.90
435;DHT22;204;48.942;9.256;2023-07-31T08:03:34;27.10;99.90
435;DHT22;204;48.942;9.256;2023-07-31T08:06:00;27.10;99.90
435;DHT22;204;48.942;9.256;2023-07-31T08:08:27;27.00;99.90
435;DHT22;204;48.942;9.256;2023-07-31T08:10:53;27.00;99.90
435;DHT22;204;48.942;9.256;2023-07-31T08:13:19;26.90;99.90
435;DHT22;204;48.942;9.256;2023-07-31T08:15:44;27.00;99.90
435;DHT22;204;48.942;9.256;2023-07-31T08:18:10;27.00;99.90
435;DHT22;204;48.942;9.256;2023-07-31T08:20:37;27.00;99.90
435;DHT22;204;48.942;9.256;2023-07-31T08:23:02;26.40;99.90
435;DHT22;204;48.942;9.256;2023-07-31T08:25:28;26.30;99.90
435;DHT22;204;48.942;9.256;2023-07-31T08:27:54;25.90;99.90
435;DHT22;204;48.942;9.256;2023-07-31T08:30:22;25.90;99.90
435;DHT22;204;48.942;9.256;2023-07-31T08:32:49;25.90;99.90
435;DHT22;204;48.942;9.256;2023-07-31T08:35:15;25.90;99.90
435;DHT22;204;48.942;9.256;2023-07-31T08:37:41;25.90;99.90
435;DHT22;204;48.942;9.256;2023-07-31T08:40:07;26.10;99.90
435;DHT22;204;48.942;9.256;2023-07-31T08:42:33;26.30;99.90
435;DHT22;204;48.942;9.256;2023-07-31T08:45:00;26.40;99.90
435;DHT22;204;48.942;9.256;2023-07-31T08:47:27;26.50;99.90
435;DHT22;204;48.942;9.256;2023-07-31T08:49:54;26.50;99.90
435;DHT22;204;48.942;9.256;2023-07-31T08:52:21;26.60;99.90
435;DHT22;204;48.942;9.256;2023-07-31T08:54:46;26.50;99.90
435;DHT22;204;48.942;9.256;2023-07-31T08:57:13;26.60;99.90
435;DHT22;204;48.942;9.256;2023-07-31T08:59:40;26.60;99.90
435;DHT22;204;48.942;9.256;2023-07-31T09:02:08;26.70;99.90
435;DHT22;204;48.942;9.256;2023-07-31T09:04:34;27.00;99.90
435;DHT22;204;48.942;9.256;2023-07-31T09:07:03;27.30;99.90
435;DHT22;204;48.942;9.256;2023-07-31T09:09:32;27.60;99.90
435;DHT22;204;48.942;9.256;2023-07-31T09:11:58;27.80;99.90
435;DHT22;204;48.942;9.256;2023-07-31T09:14:27;28.00;99.90
435;DHT22;204;48.942;9.256;2023-07-31T09:16:58;28.20;99.90
435;DHT22;204;48.942;9.256;2023-07-31T09:19:35;28.30;99.90
435;DHT22;204;48.942;9.256;2023-07-31T09:22:06;28.20;99.90
435;DHT22;204;48.942;9.256;2023-07-31T09:24:34;28.40;99.90
435;DHT22;204;48.942;9.256;2023-07-31T09:27:00;28.20;99.90
435;DHT22;204;48.942;9.256;2023-07-31T09:29:27;28.10;99.90
435;DHT22;204;48.942;9.256;2023-07-31T09:31:54;28.30;99.90
435;DHT22;204;48.942;9.256;2023-07-31T09:34:20;28.30;99.90
435;DHT22;204;48.942;9.256;2023-07-31T09:36:53;28.30;99.90
435;DHT22;204;48.942;9.256;2023-07-31T09:39:19;28.40;99.90
435;DHT22;204;48.942;9.256;2023-07-31T09:41:54;28.50;99.90
435;DHT22;204;48.942;9.256;2023-07-31T09:44:20;28.40;99.90
435;DHT22;204;48.942;9.256;2023-07-31T09:46:46;28.30;99.90
435;DHT22;204;48.942;9.256;2023-07-31T09:49:13;28.40;99.90
435;DHT22;204;48.942;9.256;2023-07-31T09:51:41;28.40;99.90
435;DHT22;204;48.942;9.256;2023-07-31T09:54:16;28.40;99.90
435;DHT22;204;48.942;9.256;2023-07-31T09:59:11;28.50;99.90
435;DHT22;204;48.942;9.256;2023-07-31T10:01:38;28.40;99.90
435;DHT22;204;48.942;9.256;2023-07-31T10:04:05;28.20;99.90
435;DHT22;204;48.942;9.256;2023-07-31T10:06:35;28.20;99.90
435;DHT22;204;48.942;9.256;2023-07-31T10:09:02;28.20;99.90
435;DHT22;204;48.942;9.256;2023-07-31T10:11:30;28.10;99.90
435;DHT22;204;48.942;9.256;2023-07-31T10:13:59;28.00;99.90
435;DHT22;204;48.942;9.256;2023-07-31T10:16:24;27.90;99.90
435;DHT22;204;48.942;9.256;2023-07-31T10:18:51;27.80;99.90
435;DHT22;204;48.942;9.256;2023-07-31T10:21:17;27.70;99.90
435;DHT22;204;48.942;9.256;2023-07-31T10:23:44;27.70;99.90
435;DHT22;204;48.942;9.256;2023-07-31T10:26:10;27.90;99.90
435;DHT22;204;48.942;9.256;2023-07-31T10:28:37;28.10;99.90
435;DHT22;204;48.942;9.256;2023-07-31T10:31:03;28.20;99.90
435;DHT22;204;48.942;9.256;2023-07-31T10:33:29;28.50;99.90
435;DHT22;204;48.942;9.256;2023-07-31T10:36:34;28.60;99.90
435;DHT22;204;48.942;9.256;2023-07-31T10:38:59;28.70;99.90
435;DHT22;204;48.942;9.256;2023-07-31T10:41:31;28.80;99.90
435;DHT22;204;48.942;9.256;2023-07-31T10:44:00;29.00;99.90
435;DHT22;204;48.942;9.256;2023-07-31T10:46:28;29.10;99.90
435;DHT22;204;48.942;9.256;2023-07-31T10:48:58;29.10;99.90
435;DHT22;204;48.942;9.256;2023-07-31T10:51:32;28.90;99.90
435;DHT22;204;48.942;9.256;2023-07-31T10:54:16;28.70;99.90
435;DHT22;204;48.942;9.256;2023-07-31T10:56:46;28.70;99.90
435;DHT22;204;48.942;9.256;2023-07-31T10:59:15;28.70;99.90
435;DHT22;204;48.942;9.256;2023-07-31T11:01:56;28.50;99.90
435;DHT22;204;48.942;9.256;2023-07-31T11:04:28;28.60;99.90
435;DHT22;204;48.942;9.256;2023-07-31T11:06:58;28.70;99.90
435;DHT22;204;48.942;9.256;2023-07-31T11:09:28;29.00;99.90
435;DHT22;204;48.942;9.256;2023-07-31T11:11:55;29.10;99.90
435;DHT22;204;48.942;9.256;2023-07-31T11:14:21;29.40;99.90
435;DHT22;204;48.942;9.256;2023-07-31T11:16:50;29.30;99.90
435;DHT22;204;48.942;9.256;2023-07-31T11:19:22;29.00;99.90
435;DHT22;204;48.942;9.256;2023-07-31T11:21:48;28.80;99.90
435;DHT22;204;48.942;9.256;2023-07-31T11:24:13;28.80;99.90
435;DHT22;204;48.942;9.256;2023-07-31T11:26:47;28.60;99.90
435;DHT22;204;48.942;9.256;2023-07-31T11:29:13;28.60;99.90
435;DHT22;204;48.942;9.256;2023-07-31T11:31:43;28.60;99.90
435;DHT22;204;48.942;9.256;2023-07-31T11:34:08;28.50;99.90
435;DHT22;204;48.942;9.256;2023-07-31T11:36:34;28.60;99.90
435;DHT22;204;48.942;9.256;2023-07-31T11:39:08;28.80;99.90
435;DHT22;204;48.942;9.256;2023-07-31T11:41:34;28.90;99.90
435;DHT22;204;48.942;9.256;2023-07-31T11:44:00;29.00;99.90
435;DHT22;204;48.942;9.256;2023-07-31T11:46:26;29.00;99.90
435;DHT22;204;48.942;9.256;2023-07-31T11:48:52;29.20;99.90
435;DHT22;204;48.942;9.256;2023-07-31T11:51:19;29.40;99.90
435;DHT22;204;48.942;9.256;2023-07-31T11:53:50;29.70;99.90
435;DHT22;204;48.942;9.256;2023-07-31T11:56:18;29.80;99.90
435;DHT22;204;48.942;9.256;2023-07-31T11:58:46;29.70;99.90
435;DHT22;204;48.942;9.256;2023-07-31T12:01:14;29.70;99.90
435;DHT22;204;48.942;9.256;2023-07-31T12:03:40;29.50;99.90
435;DHT22;204;48.942;9.256;2023-07-31T12:06:08;29.40;99.90
435;DHT22;204;48.942;9.256;2023-07-31T12:08:33;29.20;99.90
435;DHT22;204;48.942;9.256;2023-07-31T12:11:04;29.20;99.90
435;DHT22;204;48.942;9.256;2023-07-31T12:13:31;29.30;99.90
435;DHT22;204;48.942;9.256;2023-07-31T12:15:59;29.30;99.90
435;DHT22;204;48.942;9.256;2023-07-31T12:18:26;29.40;99.90
435;DHT22;204;48.942;9.256;2023-07-31T12:21:00;29.20;99.90
435;DHT22;204;48.942;9.256;2023-07-31T12:23:32;29.20;99.90
435;DHT22;204;48.942;9.256;2023-07-31T12:28:27;29.20;99.90
435;DHT22;204;48.942;9.256;2023-07-31T12:30:57;29.20;99.90
435;DHT22;204;48.942;9.256;2023-07-31T12:33:23;29.40;99.90
435;DHT22;204;48.942;9.256;2023-07-31T12:35:49;29.70;99.90
435;DHT22;204;48.942;9.256;2023-07-31T12:38:15;29.80;99.90
435;DHT22;204;48.942;9.256;2023-07-31T12:40:41;30.10;99.90
435;DHT22;204;48.942;9.256;2023-07-31T12:43:08;30.40;99.90
435;DHT22;204;48.942;9.256;2023-07-31T12:45:34;30.50;99.90
435;DHT22;204;48.942;9.256;2023-07-31T12:48:00;30.70;99.90
435;DHT22;204;48.942;9.256;2023-07-31T12:50:27;30.90;99.90
435;DHT22;204;48.942;9.256;2023-07-31T12:52:56;30.90;99.90
435;DHT22;204;48.942;9.256;2023-07-31T12:55:22;31.00;99.90
435;DHT22;204;48.942;9.256;2023-07-31T12:57:48;31.00;99.90
435;DHT22;204;48.942;9.256;2023-07-31T13:00:14;30.80;99.90
435;DHT22;204;48.942;9.256;2023-07-31T13:02:40;31.00;99.90
435;DHT22;204;48.942;9.256;2023-07-31T13:05:06;31.00;99.90
435;DHT22;204;48.942;9.256;2023-07-31T13:07:31;30.80;99.90
435;DHT22;204;48.942;9.256;2023-07-31T13:09:57;30.60;99.90
435;DHT22;204;48.942;9.256;2023-07-31T13:12:23;30.20;99.90
435;DHT22;204;48.942;9.256;2023-07-31T13:14:48;30.00;99.90
435;DHT22;204;48.942;9.256;2023-07-31T13:17:14;29.80;99.90
435;DHT22;204;48.942;9.256;2023-07-31T13:19:39;29.60;99.90
435;DHT22;204;48.942;9.256;2023-07-31T13:22:05;29.50;99.90
435;DHT22;204;48.942;9.256;2023-07-31T13:24:30;29.40;99.90
435;DHT22;204;48.942;9.256;2023-07-31T13:26:57;29.30;99.90
435;DHT22;204;48.942;9.256;2023-07-31T13:29:22;29.20;99.90
435;DHT22;204;48.942;9.256;2023-07-31T13:31:49;29.20;99.90
435;DHT22;204;48.942;9.256;2023-07-31T13:34:14;29.10;99.90
435;DHT22;204;48.942;9.256;2023-07-31T13:36:40;29.10;99.90
435;DHT22;204;48.942;9.256;2023-07-31T13:39:07;29.10;99.90
435;DHT22;204;48.942;9.256;2023-07-31T13:41:32;29.10;99.90
435;DHT22;204;48.942;9.256;2023-07-31T13:43:58;29.10;99.90
435;DHT22;204;48.942;9.256;2023-07-31T13:46:24;29.20;99.90
435;DHT22;204;48.942;9.256;2023-07-31T13:48:51;29.30;99.90
435;DHT22;204;48.942;9.256;2023-07-31T13:51:16;29.40;99.90
435;DHT22;204;48.942;9.256;2023-07-31T13:53:42;29.40;99.90
435;DHT22;204;48.942;9.256;2023-07-31T13:56:07;29.40;99.90
435;DHT22;204;48.942;9.256;2023-07-31T13:58:33;29.60;99.90
435;DHT22;204;48.942;9.256;2023-07-31T14:00:59;29.60;99.90
435;DHT22;204;48.942;9.256;2023-07-31T14:03:24;29.60;99.90
435;DHT22;204;48.942;9.256;2023-07-31T14:05:51;29.50;99.90
435;DHT22;204;48.942;9.256;2023-07-31T14:08:17;29.40;99.90
435;DHT22;204;48.942;9.256;2023-07-31T14:10:43;29.40;99.90
435;DHT22;204;48.942;9.256;2023-07-31T14:13:08;29.40;99.90
435;DHT22;204;48.942;9.256;2023-07-31T14:15:34;29.40;99.90
435;DHT22;204;48.942;9.256;2023-07-31T14:18:01;29.40;99.90
435;DHT22;204;48.942;9.256;2023-07-31T14:20:27;29.40;99.90
435;DHT22;204;48.942;9.256;2023-07-31T14:22:53;29.60;99.90
435;DHT22;204;48.942;9.256;2023-07-31T14:25:18;29.60;99.90
435;DHT22;204;48.942;9.256;2023-07-31T14:27:44;29.70;99.90
435;DHT22;204;48.942;9.256;2023-07-31T14:30:09;29.80;99.90
435;DHT22;204;48.942;9.256;2023-07-31T14:32:35;29.90;99.90
435;DHT22;204;48.942;9.256;2023-07-31T14:35:03;30.10;99.90
435;DHT22;204;48.942;9.256;2023-07-31T14:37:40;30.10;99.90
435;DHT22;204;48.942;9.256;2023-07-31T14:40:07;30.10;99.90
435;DHT22;204;48.942;9.256;2023-07-31T14:42:34;30.10;99.90
435;DHT22;204;48.942;9.256;2023-07-31T14:45:00;30.20;99.90
435;DHT22;204;48.942;9.256;2023-07-31T14:47:25;30.20;99.90
435;DHT22;204;48.942;9.256;2023-07-31T14:49:51;30.10;99.90
435;DHT22;204;48.942;9.256;2023-07-31T14:52:17;30.10;99.90
435;DHT22;204;48.942;9.256;2023-07-31T14:54:42;30.20;99.90
435;DHT22;204;48.942;9.256;2023-07-31T14:57:08;30.30;99.90
435;DHT22;204;48.942;9.256;2023-07-31T14:59:34;30.10;99.90
435;DHT22;204;48.942;9.256;2023-07-31T15:01:59;29.90;99.90
435;DHT22;204;48.942;9.256;2023-07-31T15:04:25;29.80;99.90
435;DHT22;204;48.942;9.256;2023-07-31T15:06:52;29.60;99.90
435;DHT22;204;48.942;9.256;2023-07-31T15:09:17;29.30;99.90
435;DHT22;204;48.942;9.256;2023-07-31T15:11:43;29.10;99.90
435;DHT22;204;48.942;9.256;2023-07-31T15:14:09;28.60;99.90
435;DHT22;204;48.942;9.256;2023-07-31T15:16:34;28.40;99.90
435;DHT22;204;48.942;9.256;2023-07-31T15:19:00;28.10;99.90
435;DHT22;204;48.942;9.256;2023-07-31T15:21:26;27.90;99.90
435;DHT22;204;48.942;9.256;2023-07-31T15:23:52;27.80;99.90
435;DHT22;204;48.942;9.256;2023-07-31T15:26:17;27.90;99.90
435;DHT22;204;48.942;9.256;2023-07-31T15:28:48;28.00;99.90
435;DHT22;204;48.942;9.256;2023-07-31T15:31:14;28.20;99.90
435;DHT22;204;48.942;9.256;2023-07-31T15:33:39;28.30;99.90
435;DHT22;204;48.942;9.256;2023-07-31T15:36:05;28.40;99.90
435;DHT22;204;48.942;9.256;2023-07-31T15:38:31;28.40;99.90
435;DHT22;204;48.942;9.256;2023-07-31T15:40:56;28.50;99.90
435;DHT22;204;48.942;9.256;2023-07-31T15:43:22;28.50;99.90
435;DHT22;204;48.942;9.256;2023-07-31T15:45:47;28.40;99.90
435;DHT22;204;48.942;9.256;2023-07-31T15:48:13;28.40;99.90
435;DHT22;204;48.942;9.256;2023-07-31T15:50:39;28.40;99.90
435;DHT22;204;48.942;9.256;2023-07-31T15:53:04;28.40;99.90
435;DHT22;204;48.942;9.256;2023-07-31T15:55:30;28.40;99.90
435;DHT22;204;48.942;9.256;2023-07-31T15:57:56;28.30;99.90
435;DHT22;204;48.942;9.256;2023-07-31T16:00:21;28.20;99.90
435;DHT22;204;48.942;9.256;2023-07-31T16:02:47;28.10;99.90
435;DHT22;204;48.942;9.256;2023-07-31T16:05:13;28.00;99.90
435;DHT22;204;48.942;9.256;2023-07-31T16:07:38;27.90;99.90
435;DHT22;204;48.942;9.256;2023-07-31T16:10:04;27.90;99.90
435;DHT22;204;48.942;9.256;2023-07-31T16:12:31;27.90;99.90
435;DHT22;204;48.942;9.256;2023-07-31T16:14:57;27.80;99.90
435;DHT22;204;48.942;9.256;2023-07-31T16:17:23;27.70;99.90
435;DHT22;204;48.942;9.256;2023-07-31T16:19:48;27.70;99.90
435;DHT22;204;48.942;9.256;2023-07-31T16:22:14;27.70;99.90
435;DHT22;204;48.942;9.256;2023-07-31T16:24:39;27.60;99.90
435;DHT22;204;48.942;9.256;2023-07-31T16:27:05;27.30;99.90
435;DHT22;204;48.942;9.256;2023-07-31T16:29:31;27.20;99.90
435;DHT22;204;48.942;9.256;2023-07-31T16:31:56;27.10;99.90
435;DHT22;204;48.942;9.256;2023-07-31T16:34:22;27.10;99.90
435;DHT22;204;48.942;9.256;2023-07-31T16:36:50;27.00;99.90